sensor_id;sensor_type;location;lat;lon;timestamp;pressure;altitude;pressure_sealevel;temperature;humidity
16544;BME280;8384;47.996;7.786;2023-12-20T00:01:46;99031.97;;;5.92;97.24
16544;BME280;8384;47.996;7.786;2023-12-20T00:04:12;99040.16;;;5.85;97.45
16544;BME280;8384;47.996;7.786;2023-12-20T00:06:37;98987.16;;;5.64;97.65
16544;BME280;8384;47.996;7.786;2023-12-20T00:09:02;99022.69;;;5.81;97.95
16544;BME280;8384;47.996;7.786;2023-12-20T00:11:28;99007.69;;;5.97;96.84
16544;BME280;8384;47.996;7.786;2023-12-20T00:13:53;99016.34;;;5.88;97.39
16544;BME280;8384;47.996;7.786;2023-12-20T00:16:18;98983.25;;;5.79;97.38
16544;BME280;8384;47.996;7.786;2023-12-20T00:18:44;98984.72;;;5.81;97.01
16544;BME280;8384;47.996;7.786;2023-12-20T00:21:09;99012.22;;;5.85;97.16
16544;BME280;8384;47.996;7.786;2023-12-20T00:23:34;98974.88;;;5.62;96.98
16544;BME280;8384;47.996;7.786;2023-12-20T00:25:59;98974.91;;;5.80;97.57
16544;BME280;8384;47.996;7.786;2023-12-20T00:28:26;98961.19;;;5.75;96.78
16544;BME280;8384;47.996;7.786;2023-12-20T00:30:52;98996.53;;;5.87;96.00
16544;BME280;8384;47.996;7.786;2023-12-20T00:33:17;98942.81;;;5.77;97.15
16544;BME280;8384;47.996;7.786;2023-12-20T00:35:42;99008.44;;;5.86;96.32
16544;BME280;8384;47.996;7.786;2023-12-20T00:38:08;99012.31;;;5.71;96.23
16544;BME280;8384;47.996;7.786;2023-12-20T00:40:34;99024.00;;;5.72;96.90
16544;BME280;8384;47.996;7.786;2023-12-20T00:42:59;98991.88;;;5.50;98.67
16544;BME280;8384;47.996;7.786;2023-12-20T00:45:24;98996.63;;;5.55;100.00
16544;BME280;8384;47.996;7.786;2023-12-20T00:47:50;99010.69;;;5.45;100.00
16544;BME280;8384;47.996;7.786;2023-12-20T00:50:15;98952.81;;;5.07;100.00
16544;BME280;8384;47.996;7.786;2023-12-20T00:52:41;98987.19;;;5.07;100.00
16544;BME280;8384;47.996;7.786;2023-12-20T00:55:06;99004.31;;;5.07;100.00
16544;BME280;8384;47.996;7.786;2023-12-20T00:57:31;98977.91;;;4.96;100.00
16544;BME280;8384;47.996;7.786;2023-12-20T00:59:57;99045.38;;;5.04;100.00
16544;BME280;8384;47.996;7.786;2023-12-20T01:02:22;99009.53;;;5.02;100.00
16544;BME280;8384;47.996;7.786;2023-12-20T01:04:47;99010.78;;;5.06;100.00
16544;BME280;8384;47.996;7.786;2023-12-20T01:07:13;99003.31;;;4.95;100.00
16544;BME280;8384;47.996;7.786;2023-12-20T01:09:38;98993.81;;;4.86;100.00
16544;BME280;8384;47.996;7.786;2023-12-20T01:12:03;98988.66;;;4.77;100.00
16544;BME280;8384;47.996;7.786;2023-12-20T01:14:29;99004.81;;;4.91;100.00
16544;BME280;8384;47.996;7.786;2023-12-20T01:16:54;99022.28;;;4.95;100.00
16544;BME280;8384;47.996;7.786;2023-12-20T01:19:19;99012.16;;;4.84;100.00
16544;BME280;8384;47.996;7.786;2023-12-20T01:21:44;98983.28;;;4.64;100.00
16544;BME280;8384;47.996;7.786;2023-12-20T01:24:10;99024.19;;;4.94;100.00
16544;BME280;8384;47.996;7.786;2023-12-20T01:26:35;99020.47;;;4.89;100.00
16544;BME280;8384;47.996;7.786;2023-12-20T01:29:01;99018.47;;;4.71;100.00
16544;BME280;8384;47.996;7.786;2023-12-20T01:31:26;98998.53;;;4.58;100.00
16544;BME280;8384;47.996;7.786;2023-12-20T01:33:52;99016.72;;;4.83;100.00
16544;BME280;8384;47.996;7.786;2023-12-20T01:36:17;98996.19;;;4.69;100.00
16544;BME280;8384;47.996;7.786;2023-12-20T01:38:43;98972.78;;;4.49;100.00
16544;BME280;8384;47.996;7.786;2023-12-20T01:41:08;99025.09;;;4.82;100.00
16544;BME280;8384;47.996;7.786;2023-12-20T01:43:33;99024.84;;;4.83;100.00
16544;BME280;8384;47.996;7.786;2023-12-20T01:45:59;99030.50;;;4.82;100.00
16544;BME280;8384;47.996;7.786;2023-12-20T01:48:25;99030.94;;;4.78;100.00
16544;BME280;8384;47.996;7.786;2023-12-20T01:50:51;99009.50;;;4.70;100.00
16544;BME280;8384;47.996;7.786;2023-12-20T01:53:19;99031.13;;;4.77;100.00
16544;BME280;8384;47.996;7.786;2023-12-20T01:55:47;99023.81;;;4.84;100.00
16544;BME280;8384;47.996;7.786;2023-12-20T01:58:14;99022.38;;;4.82;100.00
16544;BME280;8384;47.996;7.786;2023-12-20T02:00:40;99006.75;;;4.77;100.00
16544;BME280;8384;47.996;7.786;2023-12-20T02:03:06;98987.22;;;4.68;100.00
16544;BME280;8384;47.996;7.786;2023-12-20T02:05:32;99022.56;;;4.80;100.00
16544;BME280;8384;47.996;7.786;2023-12-20T02:07:59;98994.34;;;4.62;100.00
16544;BME280;8384;47.996;7.786;2023-12-20T02:10:25;99017.16;;;4.80;100.00
16544;BME280;8384;47.996;7.786;2023-12-20T02:12:50;98992.31;;;4.58;100.00
16544;BME280;8384;47.996;7.786;2023-12-20T02:15:15;98998.94;;;4.62;100.00
16544;BME280;8384;47.996;7.786;2023-12-20T02:17:41;99026.00;;;4.69;100.00
16544;BME280;8384;47.996;7.786;2023-12-20T02:20:06;99000.63;;;4.63;100.00
16544;BME280;8384;47.996;7.786;2023-12-20T02:22:32;99021.56;;;4.74;100.00
16544;BME280;8384;47.996;7.786;2023-12-20T02:24:57;98983.94;;;4.59;100.00
16544;BME280;8384;47.996;7.786;2023-12-20T02:27:23;99001.38;;;4.70;100.00
16544;BME280;8384;47.996;7.786;2023-12-20T02:29:49;99022.00;;;4.71;100.00
16544;BME280;8384;47.996;7.786;2023-12-20T02:32:15;99022.44;;;4.68;100.00
16544;BME280;8384;47.996;7.786;2023-12-20T02:34:41;99012.03;;;4.72;100.00
16544;BME280;8384;47.996;7.786;2023-12-20T02:37:06;98997.44;;;4.66;100.00
16544;BME280;8384;47.996;7.786;2023-12-20T02:39:31;99017.22;;;4.73;100.00
16544;BME280;8384;47.996;7.786;2023-12-20T02:41:56;98964.84;;;4.47;100.00
16544;BME280;8384;47.996;7.786;2023-12-20T02:44:22;99000.34;;;4.71;100.00
16544;BME280;8384;47.996;7.786;2023-12-20T02:46:47;99014.69;;;4.78;100.00
16544;BME280;8384;47.996;7.786;2023-12-20T02:49:12;99013.88;;;4.71;100.00
16544;BME280;8384;47.996;7.786;2023-12-20T02:51:38;98977.16;;;4.43;100.00
16544;BME280;8384;47.996;7.786;2023-12-20T02:54:04;99011.25;;;4.58;100.00
16544;BME280;8384;47.996;7.786;2023-12-20T02:56:29;99021.84;;;4.59;100.00
16544;BME280;8384;47.996;7.786;2023-12-20T02:58:54;99015.97;;;4.69;100.00
16544;BME280;8384;47.996;7.786;2023-12-20T03:01:20;99000.44;;;4.51;100.00
16544;BME280;8384;47.996;7.786;2023-12-20T03:03:45;99030.34;;;4.70;100.00
16544;BME280;8384;47.996;7.786;2023-12-20T03:06:10;99027.88;;;4.61;100.00
16544;BME280;8384;47.996;7.786;2023-12-20T03:08:35;99039.56;;;4.62;100.00
16544;BME280;8384;47.996;7.786;2023-12-20T03:11:01;98997.38;;;4.41;100.00
16544;BME280;8384;47.996;7.786;2023-12-20T03:13:26;99037.44;;;4.64;100.00
16544;BME280;8384;47.996;7.786;2023-12-20T03:15:51;99038.09;;;4.59;100.00
16544;BME280;8384;47.996;7.786;2023-12-20T03:18:17;99018.94;;;4.61;100.00
16544;BME280;8384;47.996;7.786;2023-12-20T03:20:43;98942.13;;;4.10;100.00
16544;BME280;8384;47.996;7.786;2023-12-20T03:23:09;99041.38;;;4.68;100.00
16544;BME280;8384;47.996;7.786;2023-12-20T03:25:34;99015.44;;;4.54;100.00
16544;BME280;8384;47.996;7.786;2023-12-20T03:28:00;99006.50;;;4.46;100.00
16544;BME280;8384;47.996;7.786;2023-12-20T03:30:25;99050.75;;;4.72;100.00
16544;BME280;8384;47.996;7.786;2023-12-20T03:32:50;99038.69;;;4.68;100.00
16544;BME280;8384;47.996;7.786;2023-12-20T03:35:15;99052.66;;;4.65;100.00
16544;BME280;8384;47.996;7.786;2023-12-20T03:37:41;99005.97;;;4.31;100.00
16544;BME280;8384;47.996;7.786;2023-12-20T03:40:06;99016.53;;;4.39;100.00
16544;BME280;8384;47.996;7.786;2023-12-20T03:42:32;99051.59;;;4.66;100.00
16544;BME280;8384;47.996;7.786;2023-12-20T03:44:57;98989.31;;;4.20;100.00
16544;BME280;8384;47.996;7.786;2023-12-20T03:47:22;99034.34;;;4.60;100.00
16544;BME280;8384;47.996;7.786;2023-12-20T03:49:47;99062.44;;;4.66;100.00
16544;BME280;8384;47.996;7.786;2023-12-20T03:52:13;99056.00;;;4.60;100.00
16544;BME280;8384;47.996;7.786;2023-12-20T03:54:38;99025.50;;;4.33;100.00
16544;BME280;8384;47.996;7.786;2023-12-20T03:57:04;99059.75;;;4.59;100.00
16544;BME280;8384;47.996;7.786;2023-12-20T03:59:30;99042.91;;;4.57;100.00
16544;BME280;8384;47.996;7.786;2023-12-20T04:01:55;99068.72;;;4.60;100.00
16544;BME280;8384;47.996;7.786;2023-12-20T04:04:20;99065.13;;;4.66;100.00
16544;BME280;8384;47.996;7.786;2023-12-20T04:06:46;99058.09;;;4.58;100.00
16544;BME280;8384;47.996;7.786;2023-12-20T04:09:11;99066.84;;;4.60;100.00
16544;BME280;8384;47.996;7.786;2023-12-20T04:11:37;99071.41;;;4.67;100.00
16544;BME280;8384;47.996;7.786;2023-12-20T04:14:02;99068.06;;;4.64;100.00
16544;BME280;8384;47.996;7.786;2023-12-20T04:16:27;99048.94;;;4.59;100.00
16544;BME280;8384;47.996;7.786;2023-12-20T04:18:52;99046.38;;;4.71;100.00
16544;BME280;8384;47.996;7.786;2023-12-20T04:21:18;99051.78;;;4.71;100.00
16544;BME280;8384;47.996;7.786;2023-12-20T04:23:43;99072.84;;;4.69;100.00
16544;BME280;8384;47.996;7.786;2023-12-20T04:26:09;99079.28;;;4.68;100.00
16544;BME280;8384;47.996;7.786;2023-12-20T04:28:34;99066.88;;;4.54;100.00
16544;BME280;8384;47.996;7.786;2023-12-20T04:30:59;99050.63;;;4.54;100.00
16544;BME280;8384;47.996;7.786;2023-12-20T04:33:24;99068.50;;;4.61;100.00
16544;BME280;8384;47.996;7.786;2023-12-20T04:35:50;99089.09;;;4.76;100.00
16544;BME280;8384;47.996;7.786;2023-12-20T04:38:15;99088.06;;;4.63;100.00
16544;BME280;8384;47.996;7.786;2023-12-20T04:40:40;99096.34;;;4.75;100.00
16544;BME280;8384;47.996;7.786;2023-12-20T04:43:06;99104.91;;;4.72;100.00
16544;BME280;8384;47.996;7.786;2023-12-20T04:45:32;99098.84;;;4.77;100.00
16544;BME280;8384;47.996;7.786;2023-12-20T04:47:57;99093.03;;;4.73;100.00
16544;BME280;8384;47.996;7.786;2023-12-20T04:50:22;99099.91;;;4.69;100.00
16544;BME280;8384;47.996;7.786;2023-12-20T04:52:48;99102.78;;;4.88;100.00
16544;BME280;8384;47.996;7.786;2023-12-20T04:55:13;99079.75;;;4.58;100.00
16544;BME280;8384;47.996;7.786;2023-12-20T04:57:39;99068.50;;;4.61;100.00
16544;BME280;8384;47.996;7.786;2023-12-20T05:00:05;99102.19;;;4.72;100.00
16544;BME280;8384;47.996;7.786;2023-12-20T05:02:30;99073.28;;;4.59;100.00
16544;BME280;8384;47.996;7.786;2023-12-20T05:04:56;99107.19;;;4.75;100.00
16544;BME280;8384;47.996;7.786;2023-12-20T05:07:21;99102.00;;;4.74;100.00
16544;BME280;8384;47.996;7.786;2023-12-20T05:09:47;99085.28;;;4.77;100.00
16544;BME280;8384;47.996;7.786;2023-12-20T05:12:12;99094.66;;;4.81;100.00
16544;BME280;8384;47.996;7.786;2023-12-20T05:14:37;99101.13;;;4.87;100.00
16544;BME280;8384;47.996;7.786;2023-12-20T05:17:03;99076.03;;;4.53;100.00
16544;BME280;8384;47.996;7.786;2023-12-20T05:19:28;99105.34;;;4.76;100.00
16544;BME280;8384;47.996;7.786;2023-12-20T05:21:53;99079.91;;;4.70;100.00
16544;BME280;8384;47.996;7.786;2023-12-20T05:24:18;99114.00;;;4.91;100.00
16544;BME280;8384;47.996;7.786;2023-12-20T05:26:44;99101.72;;;4.89;100.00
16544;BME280;8384;47.996;7.786;2023-12-20T05:29:09;99108.97;;;4.95;100.00
16544;BME280;8384;47.996;7.786;2023-12-20T05:31:34;99113.53;;;5.01;100.00
16544;BME280;8384;47.996;7.786;2023-12-20T05:33:59;99094.88;;;4.79;100.00
16544;BME280;8384;47.996;7.786;2023-12-20T05:36:25;99117.19;;;4.82;100.00
16544;BME280;8384;47.996;7.786;2023-12-20T05:38:50;99117.97;;;4.89;100.00
16544;BME280;8384;47.996;7.786;2023-12-20T05:41:16;99095.34;;;4.70;100.00
16544;BME280;8384;47.996;7.786;2023-12-20T05:43:41;99128.97;;;4.94;100.00
16544;BME280;8384;47.996;7.786;2023-12-20T05:46:06;99128.75;;;5.02;100.00
16544;BME280;8384;47.996;7.786;2023-12-20T05:48:32;99086.41;;;4.62;100.00
16544;BME280;8384;47.996;7.786;2023-12-20T05:50:57;99115.69;;;4.86;100.00
16544;BME280;8384;47.996;7.786;2023-12-20T05:53:22;99122.97;;;4.85;100.00
16544;BME280;8384;47.996;7.786;2023-12-20T05:55:48;99130.06;;;4.86;100.00
16544;BME280;8384;47.996;7.786;2023-12-20T05:58:13;99114.28;;;4.76;100.00
16544;BME280;8384;47.996;7.786;2023-12-20T06:00:38;99111.09;;;4.86;100.00
16544;BME280;8384;47.996;7.786;2023-12-20T06:03:04;99136.31;;;4.87;100.00
16544;BME280;8384;47.996;7.786;2023-12-20T06:05:30;99104.72;;;4.74;100.00
16544;BME280;8384;47.996;7.786;2023-12-20T06:07:55;99142.47;;;5.07;100.00
16544;BME280;8384;47.996;7.786;2023-12-20T06:10:26;99143.53;;;5.06;100.00
16544;BME280;8384;47.996;7.786;2023-12-20T06:12:51;99151.69;;;5.00;100.00
16544;BME280;8384;47.996;7.786;2023-12-20T06:15:17;99140.94;;;4.79;100.00
16544;BME280;8384;47.996;7.786;2023-12-20T06:17:42;99158.16;;;4.92;100.00
16544;BME280;8384;47.996;7.786;2023-12-20T06:20:07;99125.47;;;4.93;100.00
16544;BME280;8384;47.996;7.786;2023-12-20T06:22:34;99117.19;;;4.82;100.00
16544;BME280;8384;47.996;7.786;2023-12-20T06:25:00;99150.22;;;4.97;100.00
16544;BME280;8384;47.996;7.786;2023-12-20T06:27:25;99125.06;;;4.90;100.00
16544;BME280;8384;47.996;7.786;2023-12-20T06:29:50;99153.31;;;5.07;100.00
16544;BME280;8384;47.996;7.786;2023-12-20T06:32:16;99155.19;;;5.14;100.00
16544;BME280;8384;47.996;7.786;2023-12-20T06:34:41;99132.94;;;4.98;100.00
16544;BME280;8384;47.996;7.786;2023-12-20T06:37:06;99144.97;;;5.09;100.00
16544;BME280;8384;47.996;7.786;2023-12-20T06:39:31;99154.38;;;5.06;100.00
16544;BME280;8384;47.996;7.786;2023-12-20T06:41:59;99165.00;;;5.01;100.00
16544;BME280;8384;47.996;7.786;2023-12-20T06:44:24;99146.75;;;4.90;100.00
16544;BME280;8384;47.996;7.786;2023-12-20T06:46:49;99158.63;;;4.89;100.00
16544;BME280;8384;47.996;7.786;2023-12-20T06:49:14;99168.56;;;4.95;100.00
16544;BME280;8384;47.996;7.786;2023-12-20T06:51:40;99177.59;;;4.89;100.00
16544;BME280;8384;47.996;7.786;2023-12-20T06:54:05;99166.13;;;4.87;100.00
16544;BME280;8384;47.996;7.786;2023-12-20T06:56:30;99155.72;;;4.84;100.00
16544;BME280;8384;47.996;7.786;2023-12-20T06:58:56;99181.50;;;5.00;100.00
16544;BME280;8384;47.996;7.786;2023-12-20T07:01:21;99159.41;;;4.96;100.00
16544;BME280;8384;47.996;7.786;2023-12-20T07:03:47;99190.81;;;5.17;100.00
16544;BME280;8384;47.996;7.786;2023-12-20T07:06:12;99168.34;;;5.03;100.00
16544;BME280;8384;47.996;7.786;2023-12-20T07:08:40;99196.66;;;5.14;100.00
16544;BME280;8384;47.996;7.786;2023-12-20T07:11:05;99194.78;;;5.08;100.00
16544;BME280;8384;47.996;7.786;2023-12-20T07:13:30;99190.81;;;5.17;100.00
16544;BME280;8384;47.996;7.786;2023-12-20T07:15:56;99197.28;;;5.09;100.00
16544;BME280;8384;47.996;7.786;2023-12-20T07:18:21;99161.75;;;4.79;100.00
16544;BME280;8384;47.996;7.786;2023-12-20T07:20:46;99212.28;;;5.12;100.00
16544;BME280;8384;47.996;7.786;2023-12-20T07:23:12;99202.28;;;5.06;100.00
16544;BME280;8384;47.996;7.786;2023-12-20T07:25:37;99215.47;;;4.95;100.00
16544;BME280;8384;47.996;7.786;2023-12-20T07:28:02;99205.91;;;4.86;100.00
16544;BME280;8384;47.996;7.786;2023-12-20T07:30:28;99197.56;;;4.81;100.00
16544;BME280;8384;47.996;7.786;2023-12-20T07:32:53;99232.94;;;5.06;100.00
16544;BME280;8384;47.996;7.786;2023-12-20T07:35:18;99226.25;;;5.09;100.00
16544;BME280;8384;47.996;7.786;2023-12-20T07:37:43;99225.66;;;5.00;100.00
16544;BME280;8384;47.996;7.786;2023-12-20T07:40:09;99215.66;;;5.07;100.00
16544;BME280;8384;47.996;7.786;2023-12-20T07:42:35;99250.44;;;5.10;100.00
16544;BME280;8384;47.996;7.786;2023-12-20T07:45:00;99251.25;;;5.11;100.00
16544;BME280;8384;47.996;7.786;2023-12-20T07:47:25;99253.94;;;5.18;100.00
16544;BME280;8384;47.996;7.786;2023-12-20T07:49:51;99246.69;;;5.12;100.00
16544;BME280;8384;47.996;7.786;2023-12-20T07:52:17;99226.13;;;4.90;100.00
16544;BME280;8384;47.996;7.786;2023-12-20T07:54:43;99257.97;;;5.02;100.00
16544;BME280;8384;47.996;7.786;2023-12-20T07:57:08;99253.81;;;4.99;100.00
16544;BME280;8384;47.996;7.786;2023-12-20T07:59:33;99232.38;;;4.84;100.00
16544;BME280;8384;47.996;7.786;2023-12-20T08:01:59;99252.56;;;5.02;100.00
16544;BME280;8384;47.996;7.786;2023-12-20T08:04:24;99247.97;;;4.95;100.00
16544;BME280;8384;47.996;7.786;2023-12-20T08:06:50;99209.69;;;4.65;100.00
16544;BME280;8384;47.996;7.786;2023-12-20T08:09:15;99219.25;;;4.81;100.00
16544;BME280;8384;47.996;7.786;2023-12-20T08:11:47;99239.44;;;4.99;100.00
16544;BME280;8384;47.996;7.786;2023-12-20T08:14:13;99261.94;;;4.99;100.00
16544;BME280;8384;47.996;7.786;2023-12-20T08:16:38;99266.72;;;4.97;100.00
16544;BME280;8384;47.996;7.786;2023-12-20T08:19:03;99269.84;;;5.07;100.00
16544;BME280;8384;47.996;7.786;2023-12-20T08:21:29;99273.19;;;5.03;100.00
16544;BME280;8384;47.996;7.786;2023-12-20T08:23:54;99257.34;;;5.00;100.00
16544;BME280;8384;47.996;7.786;2023-12-20T08:26:20;99269.00;;;5.00;100.00
16544;BME280;8384;47.996;7.786;2023-12-20T08:28:46;99276.25;;;5.20;100.00
16544;BME280;8384;47.996;7.786;2023-12-20T08:31:16;99243.81;;;4.86;100.00
16544;BME280;8384;47.996;7.786;2023-12-20T08:33:43;99276.50;;;5.12;100.00
16544;BME280;8384;47.996;7.786;2023-12-20T08:36:09;99257.94;;;5.15;100.00
16544;BME280;8384;47.996;7.786;2023-12-20T08:38:34;99290.44;;;5.15;100.00
16544;BME280;8384;47.996;7.786;2023-12-20T08:40:59;99285.00;;;5.22;100.00
16544;BME280;8384;47.996;7.786;2023-12-20T08:43:25;99265.88;;;5.03;100.00
16544;BME280;8384;47.996;7.786;2023-12-20T08:45:50;99231.34;;;4.78;100.00
16544;BME280;8384;47.996;7.786;2023-12-20T08:48:15;99304.03;;;5.08;100.00
16544;BME280;8384;47.996;7.786;2023-12-20T08:50:40;99301.53;;;5.00;100.00
16544;BME280;8384;47.996;7.786;2023-12-20T08:53:06;99282.13;;;5.03;100.00
16544;BME280;8384;47.996;7.786;2023-12-20T08:55:32;99319.22;;;5.16;100.00
16544;BME280;8384;47.996;7.786;2023-12-20T08:57:57;99310.00;;;5.31;100.00
16544;BME280;8384;47.996;7.786;2023-12-20T09:00:22;99308.72;;;5.40;100.00
16544;BME280;8384;47.996;7.786;2023-12-20T09:02:49;99323.13;;;5.34;100.00
16544;BME280;8384;47.996;7.786;2023-12-20T09:05:15;99321.28;;;5.21;100.00
16544;BME280;8384;47.996;7.786;2023-12-20T09:07:40;99285.06;;;4.95;100.00
16544;BME280;8384;47.996;7.786;2023-12-20T09:10:06;99290.91;;;4.92;100.00
16544;BME280;8384;47.996;7.786;2023-12-20T09:12:31;99327.13;;;5.24;100.00
16544;BME280;8384;47.996;7.786;2023-12-20T09:14:56;99304.03;;;5.02;100.00
16544;BME280;8384;47.996;7.786;2023-12-20T09:17:22;99342.75;;;5.22;100.00
16544;BME280;8384;47.996;7.786;2023-12-20T09:19:48;99333.78;;;5.22;100.00
16544;BME280;8384;47.996;7.786;2023-12-20T09:22:13;99340.06;;;5.22;100.00
16544;BME280;8384;47.996;7.786;2023-12-20T09:24:38;99345.66;;;5.21;100.00
16544;BME280;8384;47.996;7.786;2023-12-20T09:27:05;99350.91;;;5.22;100.00
16544;BME280;8384;47.996;7.786;2023-12-20T09:29:30;99351.50;;;5.18;100.00
16544;BME280;8384;47.996;7.786;2023-12-20T09:31:56;99335.50;;;5.09;100.00
16544;BME280;8384;47.996;7.786;2023-12-20T09:34:22;99352.16;;;5.27;100.00
16544;BME280;8384;47.996;7.786;2023-12-20T09:36:48;99329.66;;;5.13;100.00
16544;BME280;8384;47.996;7.786;2023-12-20T09:39:14;99324.22;;;5.19;100.00
16544;BME280;8384;47.996;7.786;2023-12-20T09:41:43;99337.56;;;5.07;100.00
16544;BME280;8384;47.996;7.786;2023-12-20T09:44:15;99340.91;;;5.16;100.00
16544;BME280;8384;47.996;7.786;2023-12-20T09:46:43;99363.19;;;5.18;100.00
16544;BME280;8384;47.996;7.786;2023-12-20T09:49:10;99353.16;;;5.32;100.00
16544;BME280;8384;47.996;7.786;2023-12-20T09:51:36;99271.75;;;4.93;100.00
16544;BME280;8384;47.996;7.786;2023-12-20T09:54:03;99351.69;;;5.36;100.00
16544;BME280;8384;47.996;7.786;2023-12-20T09:56:29;99307.16;;;4.99;100.00
16544;BME280;8384;47.996;7.786;2023-12-20T09:58:55;99357.69;;;5.52;100.00
16544;BME280;8384;47.996;7.786;2023-12-20T10:01:21;99348.09;;;5.56;100.00
16544;BME280;8384;47.996;7.786;2023-12-20T10:03:46;99310.22;;;5.29;100.00
16544;BME280;8384;47.996;7.786;2023-12-20T10:06:12;99312.91;;;5.43;100.00
16544;BME280;8384;47.996;7.786;2023-12-20T10:08:37;99336.16;;;5.64;100.00
16544;BME280;8384;47.996;7.786;2023-12-20T10:11:03;99326.19;;;5.58;100.00
16544;BME280;8384;47.996;7.786;2023-12-20T10:13:29;99323.63;;;5.76;100.00
16544;BME280;8384;47.996;7.786;2023-12-20T10:15:55;99306.31;;;5.70;100.00
16544;BME280;8384;47.996;7.786;2023-12-20T10:18:20;99328.66;;;5.66;100.00
16544;BME280;8384;47.996;7.786;2023-12-20T10:20:46;99314.31;;;5.52;97.36
16544;BME280;8384;47.996;7.786;2023-12-20T10:23:12;99330.59;;;5.52;98.94
16544;BME280;8384;47.996;7.786;2023-12-20T10:25:39;99341.00;;;5.55;97.03
16544;BME280;8384;47.996;7.786;2023-12-20T10:28:15;99338.53;;;5.53;95.29
16544;BME280;8384;47.996;7.786;2023-12-20T10:30:45;99286.84;;;5.35;95.00
16544;BME280;8384;47.996;7.786;2023-12-20T10:33:10;99319.09;;;5.56;95.15
16544;BME280;8384;47.996;7.786;2023-12-20T10:35:36;99295.41;;;5.25;94.30
16544;BME280;8384;47.996;7.786;2023-12-20T10:38:04;99301.22;;;5.42;94.27
16544;BME280;8384;47.996;7.786;2023-12-20T10:40:31;99304.06;;;5.61;95.63
16544;BME280;8384;47.996;7.786;2023-12-20T10:42:57;99311.44;;;5.85;91.67
16544;BME280;8384;47.996;7.786;2023-12-20T10:45:23;99280.31;;;5.56;91.19
16544;BME280;8384;47.996;7.786;2023-12-20T10:47:49;99300.88;;;5.77;88.58
16544;BME280;8384;47.996;7.786;2023-12-20T10:50:15;99289.59;;;5.80;90.30
16544;BME280;8384;47.996;7.786;2023-12-20T10:52:42;99311.50;;;5.79;87.48
16544;BME280;8384;47.996;7.786;2023-12-20T10:55:08;99313.81;;;5.75;86.01
16544;BME280;8384;47.996;7.786;2023-12-20T10:57:36;99310.38;;;6.00;81.82
16544;BME280;8384;47.996;7.786;2023-12-20T11:00:02;99302.63;;;5.97;79.47
16544;BME280;8384;47.996;7.786;2023-12-20T11:02:39;99305.28;;;6.10;79.10
16544;BME280;8384;47.996;7.786;2023-12-20T11:05:33;99306.44;;;5.89;81.01
16544;BME280;8384;47.996;7.786;2023-12-20T11:11:23;99247.19;;;5.47;81.85
16544;BME280;8384;47.996;7.786;2023-12-20T11:13:58;99297.16;;;6.10;81.68
16544;BME280;8384;47.996;7.786;2023-12-20T11:16:25;99263.44;;;6.25;78.94
16544;BME280;8384;47.996;7.786;2023-12-20T11:18:50;99299.25;;;6.91;76.62
16544;BME280;8384;47.996;7.786;2023-12-20T11:21:16;99293.34;;;6.75;76.54
16544;BME280;8384;47.996;7.786;2023-12-20T11:23:42;99297.88;;;7.26;76.39
16544;BME280;8384;47.996;7.786;2023-12-20T11:26:07;99304.25;;;7.69;76.36
16544;BME280;8384;47.996;7.786;2023-12-20T11:28:33;99304.66;;;7.54;73.70
16544;BME280;8384;47.996;7.786;2023-12-20T11:31:00;99311.06;;;7.22;68.98
16544;BME280;8384;47.996;7.786;2023-12-20T11:33:29;99300.88;;;6.99;73.22
16544;BME280;8384;47.996;7.786;2023-12-20T11:35:59;99305.72;;;7.15;67.24
16544;BME280;8384;47.996;7.786;2023-12-20T11:38:25;99295.88;;;7.14;64.38
16544;BME280;8384;47.996;7.786;2023-12-20T11:40:53;99295.19;;;7.19;64.97
16544;BME280;8384;47.996;7.786;2023-12-20T11:43:35;99291.81;;;7.24;67.03
16544;BME280;8384;47.996;7.786;2023-12-20T11:46:07;99278.59;;;7.27;64.34
16544;BME280;8384;47.996;7.786;2023-12-20T11:48:39;99302.19;;;7.33;64.16
16544;BME280;8384;47.996;7.786;2023-12-20T11:51:12;99292.72;;;7.17;63.92
16544;BME280;8384;47.996;7.786;2023-12-20T11:53:38;99285.84;;;7.15;64.74
16544;BME280;8384;47.996;7.786;2023-12-20T11:56:06;99284.56;;;7.17;62.62
16544;BME280;8384;47.996;7.786;2023-12-20T11:58:32;99257.50;;;6.85;62.94
16544;BME280;8384;47.996;7.786;2023-12-20T12:00:57;99233.31;;;6.77;61.99
16544;BME280;8384;47.996;7.786;2023-12-20T12:03:23;99223.59;;;6.69;63.34
16544;BME280;8384;47.996;7.786;2023-12-20T12:05:49;99255.31;;;6.94;63.49
16544;BME280;8384;47.996;7.786;2023-12-20T12:08:14;99279.28;;;7.23;64.50
16544;BME280;8384;47.996;7.786;2023-12-20T12:10:40;99263.03;;;6.97;63.73
16544;BME280;8384;47.996;7.786;2023-12-20T12:13:05;99271.34;;;7.02;62.12
16544;BME280;8384;47.996;7.786;2023-12-20T12:15:31;99273.97;;;6.90;63.00
16544;BME280;8384;47.996;7.786;2023-12-20T12:17:56;99273.59;;;7.05;63.22
16544;BME280;8384;47.996;7.786;2023-12-20T12:20:23;99269.22;;;7.04;62.88
16544;BME280;8384;47.996;7.786;2023-12-20T12:23:02;99234.63;;;6.74;62.64
16544;BME280;8384;47.996;7.786;2023-12-20T12:25:32;99266.03;;;6.89;63.53
16544;BME280;8384;47.996;7.786;2023-12-20T12:28:00;99260.59;;;6.89;62.91
16544;BME280;8384;47.996;7.786;2023-12-20T12:30:25;99263.53;;;6.87;62.70
16544;BME280;8384;47.996;7.786;2023-12-20T12:32:52;99265.97;;;6.96;64.26
16544;BME280;8384;47.996;7.786;2023-12-20T12:35:18;99279.94;;;7.55;61.76
16544;BME280;8384;47.996;7.786;2023-12-20T12:37:43;99268.03;;;7.38;61.27
16544;BME280;8384;47.996;7.786;2023-12-20T12:40:10;99271.13;;;7.41;60.48
16544;BME280;8384;47.996;7.786;2023-12-20T12:42:36;99297.25;;;7.42;62.76
16544;BME280;8384;47.996;7.786;2023-12-20T12:45:02;99242.31;;;6.78;62.43
16544;BME280;8384;47.996;7.786;2023-12-20T12:47:28;99253.34;;;6.83;60.22
16544;BME280;8384;47.996;7.786;2023-12-20T12:49:53;99228.66;;;6.66;59.69
16544;BME280;8384;47.996;7.786;2023-12-20T12:52:19;99207.03;;;6.52;59.17
16544;BME280;8384;47.996;7.786;2023-12-20T12:54:44;99260.03;;;6.62;59.47
16544;BME280;8384;47.996;7.786;2023-12-20T12:57:11;99276.66;;;6.72;59.66
16544;BME280;8384;47.996;7.786;2023-12-20T12:59:36;99203.63;;;6.13;58.82
16544;BME280;8384;47.996;7.786;2023-12-20T13:02:01;99278.13;;;6.42;59.88
16544;BME280;8384;47.996;7.786;2023-12-20T13:04:27;99218.47;;;6.36;60.74
16544;BME280;8384;47.996;7.786;2023-12-20T13:06:52;99218.69;;;6.09;60.97
16544;BME280;8384;47.996;7.786;2023-12-20T13:09:17;99195.31;;;6.08;60.92
16544;BME280;8384;47.996;7.786;2023-12-20T13:11:44;99226.38;;;6.37;62.39